Time;durP1;ratioP1;P1;durP2;ratioP2;P2;SDS_P1;SDS_P2;PMS_P1;PMS_P2;Temp;Humidity;BMP_temperature;BMP_pressure;BME280_temperature;BME280_humidity;BME280_pressure;Samples;Min_cycle;Max_cycle;Signal;HPM_P1;HPM_P2
2021/11/26 00:01:32;;;;;;;13.93;7.50;;;;;;;-0.52;88.88;101065.91;30955809;28;20050;-76
2021/11/26 00:16:44;;;;;;;14.60;8.17;;;;;;;-0.66;89.65;101051.97;30970603;28;20054;-75
2021/11/26 00:31:46;;;;;;;14.00;6.97;;;;;;;-0.80;90.28;101038.09;30972446;28;20133;-75
2021/11/26 00:46:48;;;;;;;17.67;8.17;;;;;;;-0.88;91.17;101017.56;30950551;28;20046;-75
2021/11/26 01:01:50;;;;;;;11.80;6.90;;;;;;;-0.95;91.80;100993.28;30948739;28;20046;-75
2021/11/26 01:16:53;;;;;;;17.63;7.60;;;;;;;-1.05;92.44;100971.22;30976592;28;20058;-75
2021/11/26 01:31:55;;;;;;;15.43;8.37;;;;;;;-1.09;92.96;100962.28;30961597;28;20054;-76
2021/11/26 01:46:57;;;;;;;13.20;6.70;;;;;;;-1.21;92.25;100946.19;30963844;28;20504;-75
2021/11/26 02:01:59;;;;;;;13.00;6.60;;;;;;;-1.30;92.83;100929.44;30953085;28;20047;-77
2021/11/26 02:17:01;;;;;;;15.83;7.17;;;;;;;-1.34;94.29;100933.84;30966557;28;20062;-76
2021/11/26 02:32:03;;;;;;;15.43;6.73;;;;;;;-1.26;93.60;100925.03;30969183;28;20055;-75
2021/11/26 02:47:05;;;;;;;16.37;7.53;;;;;;;-1.26;94.98;100918.94;30970880;28;20051;-75
2021/11/26 03:02:07;;;;;;;13.33;7.00;;;;;;;-1.20;94.98;100905.13;30988639;28;20061;-75
2021/11/26 03:17:10;;;;;;;17.43;7.87;;;;;;;-1.17;96.49;100893.81;30964618;28;20047;-76
2021/11/26 03:32:12;;;;;;;13.97;7.27;;;;;;;-1.00;97.21;100900.19;30983758;28;20150;-76
2021/11/26 03:47:16;;;;;;;14.73;6.90;;;;;;;-1.00;96.60;100887.63;30970390;28;20149;-75
2021/11/26 04:02:18;;;;;;;16.27;8.63;;;;;;;-0.98;97.01;100863.34;30970431;28;20677;-76
2021/11/26 04:17:21;;;;;;;18.40;8.10;;;;;;;-0.96;97.80;100850.47;30971687;28;20370;-75
2021/11/26 04:32:25;;;;;;;21.17;8.70;;;;;;;-0.90;100.00;100849.94;30978781;28;20128;-77
2021/11/26 04:47:27;;;;;;;11.80;7.17;;;;;;;-0.83;100.00;100865.44;30969418;28;20046;-76
2021/11/26 05:02:29;;;;;;;20.73;8.37;;;;;;;-0.80;98.88;100865.56;30978473;28;20091;-77
2021/11/26 05:17:31;;;;;;;21.37;10.57;;;;;;;-0.69;99.73;100881.97;30965695;28;20054;-76
2021/11/26 05:32:34;;;;;;;16.90;9.13;;;;;;;-0.59;100.00;100881.59;30953072;28;20561;-77
2021/11/26 05:47:36;;;;;;;22.83;10.63;;;;;;;0.46;98.78;100863.56;30965346;28;20088;-77
2021/11/26 06:02:38;;;;;;;18.90;9.30;;;;;;;2.01;91.85;100858.66;30957310;28;20058;-76
2021/11/26 06:17:41;;;;;;;16.40;8.60;;;;;;;3.54;86.25;100867.72;30969331;28;20058;-75
2021/11/26 06:32:44;;;;;;;18.10;8.93;;;;;;;4.68;80.76;100875.97;30994807;28;20061;-76
2021/11/26 06:47:47;;;;;;;16.70;7.97;;;;;;;5.47;76.84;100882.16;31001903;28;20504;-73
2021/11/26 07:02:49;;;;;;;18.77;8.77;;;;;;;6.60;73.39;100878.47;30978675;28;20046;-72
2021/11/26 07:17:51;;;;;;;20.90;10.70;;;;;;;7.52;66.26;100854.78;30994575;28;20062;-73
2021/11/26 07:32:53;;;;;;;16.37;8.50;;;;;;;8.10;67.76;100853.81;30978601;28;20054;-72
2021/11/26 07:47:55;;;;;;;16.87;8.70;;;;;;;8.74;64.94;100843.84;30962507;28;20042;-72
2021/11/26 08:03:01;;;;;;;20.83;8.57;;;;;;;7.92;64.87;100834.06;30966288;28;20058;-73
2021/11/26 08:18:06;;;;;;;18.33;9.60;;;;;;;8.82;63.94;100790.47;31003146;28;20046;-73
2021/11/26 08:33:10;;;;;;;15.87;8.73;;;;;;;9.72;60.12;100759.97;30978964;28;20059;-73
2021/11/26 08:48:13;;;;;;;17.40;9.17;;;;;;;10.42;56.33;100755.22;30963890;28;20077;-72
2021/11/26 09:03:15;;;;;;;18.93;9.83;;;;;;;10.89;56.79;100731.09;30993943;28;20054;-73
2021/11/26 09:18:18;;;;;;;18.73;9.33;;;;;;;9.23;59.79;100740.06;30976733;28;20504;-74
2021/11/26 09:33:21;;;;;;;16.90;8.77;;;;;;;10.30;57.69;100709.59;30971950;28;20054;-73
2021/11/26 09:48:23;;;;;;;23.60;10.00;;;;;;;7.64;65.30;100705.81;30977817;28;20050;-73
2021/11/26 10:03:50;;;;;;;19.63;10.33;;;;;;;6.12;73.22;100703.16;30992995;28;20050;-72
2021/11/26 10:18:54;;;;;;;23.30;10.30;;;;;;;5.35;76.98;100698.53;30980981;28;20415;-72
2021/11/26 10:33:59;;;;;;;25.90;11.53;;;;;;;5.35;77.62;100682.38;30979773;28;20062;-72
2021/11/26 11:04:22;;;;;;;26.20;11.47;;;;;;;5.59;79.97;100665.69;30979703;28;20057;-73
2021/11/26 11:19:25;;;;;;;27.47;11.27;;;;;;;5.49;79.79;100660.97;30999880;28;20405;-74
2021/11/26 11:34:30;;;;;;;33.20;12.83;;;;;;;5.16;80.18;100642.19;30991829;28;20054;-74
2021/11/26 11:49:33;;;;;;;33.67;12.57;;;;;;;5.47;80.63;100630.94;30987800;28;20566;-72
2021/11/26 12:04:45;;;;;;;32.10;12.90;;;;;;;5.55;81.18;100611.03;30979938;28;20056;-73
2021/11/26 12:20:09;;;;;;;23.90;11.73;;;;;;;8.54;71.67;100593.75;30998710;28;20098;-74
2021/11/26 12:35:13;;;;;;;28.17;11.80;;;;;;;7.11;72.68;100590.34;30995511;28;20583;-72
2021/11/26 13:05:38;;;;;;;32.03;10.90;;;;;;;4.94;81.58;100545.09;30989963;28;20064;-73
2021/11/26 13:20:52;;;;;;;31.17;13.13;;;;;;;4.41;84.82;100555.22;30990327;28;20061;-74
2021/11/26 13:36:06;;;;;;;24.27;10.50;;;;;;;4.00;87.19;100541.66;30971857;28;20137;-73
2021/11/26 13:51:14;;;;;;;28.83;11.77;;;;;;;3.87;88.01;100536.84;30989814;28;20046;-73
2021/11/26 14:06:18;;;;;;;38.93;13.87;;;;;;;3.75;89.77;100525.19;30961088;28;20055;-73
2021/11/26 14:21:25;;;;;;;33.80;13.03;;;;;;;3.76;90.13;100525.97;30984585;28;20065;-75
2021/11/26 14:36:29;;;;;;;31.20;12.97;;;;;;;3.69;89.94;100513.19;30982283;28;20050;-74
2021/11/26 14:51:33;;;;;;;23.57;10.73;;;;;;;3.46;91.60;100485.63;30993456;28;20054;-72
2021/11/26 15:06:36;;;;;;;29.37;12.20;;;;;;;3.27;93.11;100504.50;30997404;28;20052;-73
2021/11/26 15:21:38;;;;;;;30.10;10.03;;;;;;;3.05;94.28;100522.13;30990849;28;20075;-73
2021/11/26 15:36:40;;;;;;;21.77;8.77;;;;;;;2.94;93.81;100479.03;31002120;28;20050;-73
2021/11/26 15:51:42;;;;;;;25.20;10.93;;;;;;;2.86;94.64;100484.63;31002121;28;20054;-75
2021/11/26 16:06:44;;;;;;;31.20;11.07;;;;;;;2.71;95.17;100505.81;30974267;28;20054;-73
2021/11/26 16:21:46;;;;;;;26.80;10.60;;;;;;;2.66;95.51;100475.84;31000453;28;20693;-73
2021/11/26 16:37:00;;;;;;;26.33;11.07;;;;;;;2.65;98.06;100442.13;30998196;28;20400;-75
2021/11/26 16:52:05;;;;;;;25.40;8.30;;;;;;;2.59;97.84;100444.34;30995305;28;20113;-75
2021/11/26 17:07:07;;;;;;;26.13;11.33;;;;;;;2.34;99.64;100403.69;30993792;28;20060;-75
2021/11/26 17:22:25;;;;;;;22.93;8.87;;;;;;;2.24;99.28;100425.69;30958933;28;20477;-73
2021/11/26 17:37:27;;;;;;;26.37;11.90;;;;;;;2.25;100.00;100419.19;30984774;28;20543;-77
2021/11/26 17:52:30;;;;;;;21.57;8.27;;;;;;;2.25;100.00;100413.84;30986387;28;20050;-76
2021/11/26 18:07:34;;;;;;;26.47;11.13;;;;;;;2.14;100.00;100407.50;30972699;28;20070;-74
2021/11/26 18:22:37;;;;;;;28.43;12.50;;;;;;;2.10;99.87;100387.94;30958087;28;20527;-75
2021/11/26 18:37:39;;;;;;;28.87;11.97;;;;;;;2.07;99.38;100358.41;31033230;28;20050;-74
2021/11/26 18:52:43;;;;;;;25.20;11.67;;;;;;;1.96;98.57;100336.75;31049452;28;20061;-74
2021/11/26 19:07:46;;;;;;;24.43;11.30;;;;;;;1.91;99.07;100312.94;31004301;28;20069;-75
2021/11/26 19:37:58;;;;;;;25.00;9.70;;;;;;;2.37;97.75;100255.59;31582790;27;20964;-78
2021/11/26 19:53:01;;;;;;;25.67;11.37;;;;;;;2.21;98.14;100212.09;31576589;28;20059;-77
2021/11/26 20:08:03;;;;;;;26.23;11.50;;;;;;;2.29;99.01;100184.31;31572421;28;20054;-77
2021/11/26 20:23:05;;;;;;;21.97;13.13;;;;;;;2.50;99.87;100140.97;31549121;28;20425;-77
2021/11/26 20:38:08;;;;;;;33.23;12.60;;;;;;;2.79;99.91;100131.38;31436103;28;20049;-78
2021/11/26 20:53:10;;;;;;;26.50;11.30;;;;;;;3.07;99.46;100110.25;31442088;28;20056;-76
2021/11/26 21:08:12;;;;;;;27.03;11.70;;;;;;;3.13;99.29;100083.09;31426166;28;20535;-76
2021/11/26 21:23:14;;;;;;;24.77;10.50;;;;;;;3.26;99.66;100030.72;31440415;28;20053;-75
2021/11/26 21:38:16;;;;;;;32.73;12.90;;;;;;;3.41;99.59;99986.75;31454217;28;20058;-73
2021/11/26 21:53:18;;;;;;;21.53;10.13;;;;;;;3.68;99.91;99992.69;31417420;28;20080;-75
2021/11/26 22:08:22;;;;;;;22.77;10.37;;;;;;;3.96;99.53;99957.19;31448671;28;20045;-76
2021/11/26 22:23:24;;;;;;;21.57;8.77;;;;;;;4.17;98.48;99935.00;31439921;28;20053;-76
2021/11/26 22:38:26;;;;;;;18.40;8.30;;;;;;;4.30;97.64;99896.66;31441028;28;20051;-77
2021/11/26 22:53:29;;;;;;;22.40;9.70;;;;;;;4.47;96.97;99895.16;31454631;28;20048;-77
2021/11/26 23:08:32;;;;;;;21.90;9.07;;;;;;;4.68;95.58;99864.84;31439915;28;20091;-78
2021/11/26 23:23:36;;;;;;;17.50;7.63;;;;;;;4.82;95.69;99867.53;31437790;28;20110;-76
2021/11/26 23:38:39;;;;;;;13.33;6.00;;;;;;;5.11;95.75;99855.59;31439755;28;20081;-76
2021/11/26 23:53:46;;;;;;;13.43;5.83;;;;;;;5.38;95.74;99841.69;31434087;28;20474;-76
